WXM80 ListenWXM80 Stop

You find our weather info also at:

UK Metoffice

WeatherCloud

Weather Underground

Northeastern Weather Network

AWEKAS

Citizen Weather Observer Program (CWOP)

HAMweather, WeatherForYou, PWS Weather


Weather Underground History page Text

Daily Summary for December 18, 2016 Units:  English    Metric   Both
« Previous Day
Next Day »
Daily Weekly Monthly Yearly Custom
  High: Low: Average:
Temperature: 60.5 °F 34.0 °F 46.4 °F
Dew Point: 57.1 °F 20.4 °F 41.4 °F
Humidity: 98 % 56 % 84 %
Wind Speed: 14.0 mph 0.0 mph 5 mph
Wind Gust: 29.0 mph - -
Wind:- - WSW
Pressure: 30.42 in 29.68 in -
Precipitation: 0.02 in    
Historical Graphs
 
 
Tabular Data for December 18, 2016
Time Temperature Dew Point Pressure Wind Wind Speed Wind Gust Humidity Rainfall Rate (Hourly)
00:01 38.1 °F 37.1 °F 29.87 in Calm   10.4 mph 96 % 0.00 in
00:06 38.1 °F 37.1 °F 29.86 in Calm   10.4 mph 96 % 0.00 in
00:11 38.0 °F 37.0 °F 29.86 in Calm   10.4 mph 96 % 0.00 in
00:16 38.0 °F 37.0 °F 29.86 in Calm   10.4 mph 96 % 0.00 in
00:21 38.0 °F 37.0 °F 29.87 in Calm   10.4 mph 96 % 0.00 in
00:26 38.0 °F 37.0 °F 29.87 in Calm   10.4 mph 96 % 0.00 in
00:31 37.9 °F 36.9 °F 29.87 in Calm   10.4 mph 96 % 0.00 in
00:37 37.9 °F 36.9 °F 29.87 in Calm   10.4 mph 96 % 0.00 in
00:42 37.8 °F 36.8 °F 29.86 in Calm   10.4 mph 96 % 0.00 in
00:47 37.7 °F 36.7 °F 29.86 in Calm   10.4 mph 96 % 0.00 in
00:52 37.6 °F 36.3 °F 29.88 in West 0.6 mph 10.4 mph 95 % 0.00 in
00:57 37.5 °F 36.2 °F 29.87 in Calm   10.4 mph 95 % 0.00 in
01:02 37.5 °F 36.2 °F 29.87 in Calm   10.4 mph 95 % 0.00 in
01:07 37.4 °F 36.1 °F 29.86 in West 0.4 mph 10.4 mph 95 % 0.00 in
01:12 37.4 °F 36.1 °F 29.86 in Calm   10.4 mph 95 % 0.00 in
01:17 37.3 °F 36.3 °F 29.86 in Calm   10.4 mph 96 % 0.00 in
01:22 37.3 °F 36.3 °F 29.87 in West 0.8 mph 10.4 mph 96 % 0.00 in
01:27 37.2 °F 36.2 °F 29.86 in Calm   10.4 mph 96 % 0.00 in
01:32 37.2 °F 36.2 °F 29.85 in Calm   10.4 mph 96 % 0.00 in
01:37 37.1 °F 36.1 °F 29.85 in Calm   10.4 mph 96 % 0.00 in
01:42 37.1 °F 36.1 °F 29.85 in Calm   10.4 mph 96 % 0.00 in
01:48 37.0 °F 35.7 °F 29.84 in Calm   10.4 mph 95 % 0.00 in
01:53 37.0 °F 35.7 °F 29.84 in Calm   10.4 mph 95 % 0.00 in
01:58 36.9 °F 35.6 °F 29.84 in Calm   10.4 mph 95 % 0.00 in
02:03 36.9 °F 35.6 °F 29.84 in Calm   10.4 mph 95 % 0.00 in
02:08 36.9 °F 35.6 °F 29.84 in Calm   10.4 mph 95 % 0.00 in
02:13 36.9 °F 35.6 °F 29.83 in West 0.1 mph 10.4 mph 95 % 0.00 in
02:18 36.9 °F 35.9 °F 29.83 in Calm   10.4 mph 96 % 0.00 in
02:23 37.1 °F 36.1 °F 29.85 in West 0.2 mph 10.4 mph 96 % 0.00 in
02:28 37.1 °F 36.1 °F 29.85 in Calm   10.4 mph 96 % 0.00 in
02:33 37.2 °F 36.2 °F 29.84 in Calm   10.4 mph 96 % 0.00 in
02:38 37.3 °F 36.3 °F 29.84 in Calm   10.4 mph 96 % 0.00 in
02:43 37.4 °F 36.4 °F 29.83 in Calm   10.4 mph 96 % 0.00 in
02:48 37.6 °F 36.6 °F 29.83 in Calm   10.4 mph 96 % 0.00 in
02:53 37.8 °F 37.0 °F 29.82 in South 2.1 mph 10.4 mph 97 % 0.00 in
02:58 38.6 °F 37.8 °F 29.82 in West 2.9 mph 10.4 mph 97 % 0.00 in
03:08 40.8 °F 40.0 °F 29.82 in SW 3.9 mph 10.4 mph 97 % 0.00 in
03:19 43.2 °F 42.7 °F 29.83 in South 1.5 mph 10.4 mph 98 % 0.00 in
03:24 43.8 °F 43.3 °F 29.82 in SSW 2.0 mph 10.4 mph 98 % 0.00 in
03:29 44.3 °F 43.8 °F 29.80 in SSW 3.6 mph 10.4 mph 98 % 0.00 in
03:39 44.8 °F 44.3 °F 29.80 in SW 1.2 mph 10.4 mph 98 % 0.00 in
03:44 45.1 °F 44.6 °F 29.78 in South 2.5 mph 10.4 mph 98 % 0.00 in
03:49 45.3 °F 44.8 °F 29.78 in SSW 2.2 mph 10.4 mph 98 % 0.00 in
03:54 45.5 °F 45.0 °F 29.79 in South 1.9 mph 10.4 mph 98 % 0.00 in
03:59 45.6 °F 45.1 °F 29.78 in South 2.3 mph 10.4 mph 98 % 0.00 in
04:04 45.7 °F 45.2 °F 29.78 in South 1.5 mph 10.4 mph 98 % 0.00 in
04:09 46.2 °F 45.7 °F 29.77 in SSW 6.2 mph 13.0 mph 98 % 0.00 in
04:14 46.7 °F 46.2 °F 29.78 in South 3.8 mph 13.0 mph 98 % 0.00 in
04:19 46.8 °F 46.3 °F 29.78 in SW 3.9 mph 13.0 mph 98 % 0.00 in
04:24 46.9 °F 46.4 °F 29.76 in South 2.4 mph 13.0 mph 98 % 0.00 in
04:29 47.0 °F 46.5 °F 29.75 in SSE 3.7 mph 13.0 mph 98 % 0.00 in
04:39 47.0 °F 46.5 °F 29.74 in South 2.5 mph 13.0 mph 98 % 0.00 in
04:44 47.0 °F 46.5 °F 29.74 in South 3.5 mph 13.0 mph 98 % 0.00 in
04:49 47.1 °F 46.6 °F 29.74 in SSW 2.0 mph 6.0 mph 98 % 0.00 in
04:54 47.3 °F 46.8 °F 29.73 in South 6.0 mph 10.0 mph 98 % 0.00 in
04:59 47.9 °F 47.4 °F 29.73 in South 6.1 mph 17.3 mph 98 % 0.01 in
05:04 48.3 °F 47.8 °F 29.72 in South 5.0 mph 17.0 mph 98 % 0.00 in
05:09 48.9 °F 48.3 °F 29.72 in SSW 6.0 mph 15.0 mph 98 % 0.00 in
05:14 49.4 °F 48.9 °F 29.71 in South 3.5 mph 17.3 mph 98 % 0.02 in
05:19 49.6 °F 49.1 °F 29.71 in South 9.0 mph 18.0 mph 98 % 0.00 in
05:29 49.9 °F 49.4 °F 29.71 in SSW 7.0 mph 15.0 mph 98 % 0.00 in
05:34 50.1 °F 49.6 °F 29.70 in South 6.1 mph 19.6 mph 98 % 0.02 in
05:39 50.2 °F 49.7 °F 29.71 in SSW 6.4 mph 19.6 mph 98 % 0.02 in
05:44 50.3 °F 49.8 °F 29.70 in SSW 7.0 mph 20.0 mph 98 % 0.00 in
05:49 50.4 °F 49.9 °F 29.71 in SSW 8.0 mph 16.0 mph 98 % 0.00 in
05:54 50.4 °F 49.9 °F 29.71 in SW 7.6 mph 19.6 mph 98 % 0.02 in
05:59 50.5 °F 50.0 °F 29.70 in SW 10.2 mph 19.6 mph 98 % 0.01 in
06:04 50.7 °F 50.2 °F 29.69 in SSW 6.0 mph 14.0 mph 98 % 0.00 in
06:09 50.8 °F 50.3 °F 29.70 in South 7.0 mph 17.0 mph 98 % 0.00 in
06:14 50.9 °F 50.4 °F 29.70 in South 6.1 mph 19.6 mph 98 % 0.00 in
06:19 50.9 °F 50.4 °F 29.70 in SSW 6.0 mph 16.0 mph 98 % 0.00 in
06:24 51.0 °F 50.5 °F 29.69 in SSW 9.2 mph 19.6 mph 98 % 0.00 in
06:29 51.1 °F 50.6 °F 29.70 in SSW 7.0 mph 13.0 mph 98 % 0.00 in
06:34 51.2 °F 50.7 °F 29.69 in South 7.6 mph 19.6 mph 98 % 0.00 in
06:39 51.3 °F 50.7 °F 29.70 in SSW 7.0 mph 15.0 mph 98 % 0.00 in
06:44 51.4 °F 50.9 °F 29.70 in SSW 6.2 mph 19.6 mph 98 % 0.00 in
06:49 51.5 °F 51.0 °F 29.70 in South 7.0 mph 14.0 mph 98 % 0.00 in
06:54 51.6 °F 51.1 °F 29.70 in SSW 9.0 mph 16.0 mph 98 % 0.00 in
06:59 51.7 °F 51.2 °F 29.70 in SW 10.5 mph 22.0 mph 98 % 0.00 in
07:04 51.7 °F 51.2 °F 29.70 in SE 7.3 mph 22.0 mph 98 % 0.00 in
07:09 51.7 °F 51.2 °F 29.70 in SSW 6.1 mph 22.0 mph 98 % 0.00 in
07:14 51.8 °F 51.2 °F 29.70 in SSW 9.0 mph 17.0 mph 98 % 0.00 in
07:19 51.9 °F 51.4 °F 29.69 in SSW 7.3 mph 22.0 mph 98 % 0.00 in
07:24 51.9 °F 51.3 °F 29.68 in South 8.0 mph 16.0 mph 98 % 0.00 in
07:29 52.0 °F 51.5 °F 29.68 in South 6.0 mph 16.0 mph 98 % 0.00 in
07:34 52.1 °F 51.6 °F 29.68 in SSW 6.0 mph 15.0 mph 98 % 0.00 in
07:44 52.4 °F 51.9 °F 29.71 in SW 6.0 mph 20.0 mph 98 % 0.00 in
07:49 52.5 °F 52.0 °F 29.72 in SSW 6.2 mph 22.0 mph 98 % 0.00 in
07:55 52.6 °F 52.1 °F 29.73 in SW 8.6 mph 22.0 mph 98 % 0.00 in
08:00 52.6 °F 52.1 °F 29.74 in South 4.8 mph 22.0 mph 98 % 0.00 in
08:05 52.6 °F 52.1 °F 29.74 in WSW 4.2 mph 22.0 mph 98 % 0.00 in
08:10 52.6 °F 52.1 °F 29.74 in SSW 5.3 mph 22.0 mph 98 % 0.00 in
08:15 52.7 °F 52.2 °F 29.75 in SSW 5.6 mph 22.0 mph 98 % 0.00 in
08:20 52.8 °F 52.3 °F 29.75 in SW 5.4 mph 22.0 mph 98 % 0.00 in
08:25 52.9 °F 52.4 °F 29.75 in SSW 7.2 mph 22.0 mph 98 % 0.00 in
08:30 52.9 °F 52.4 °F 29.76 in SW 6.0 mph 22.0 mph 98 % 0.00 in
08:35 52.9 °F 52.4 °F 29.77 in SW 4.4 mph 22.0 mph 98 % 0.00 in
08:40 53.0 °F 52.5 °F 29.76 in WNW 4.8 mph 22.0 mph 98 % 0.00 in
08:45 53.0 °F 52.5 °F 29.76 in SW 2.9 mph 22.0 mph 98 % 0.00 in
08:50 53.0 °F 52.5 °F 29.76 in SSW 1.8 mph 22.0 mph 98 % 0.00 in
08:55 52.9 °F 52.4 °F 29.76 in South 3.7 mph 22.0 mph 98 % 0.00 in
09:00 53.0 °F 52.5 °F 29.75 in WSW 3.2 mph 22.0 mph 98 % 0.00 in
09:05 53.0 °F 52.5 °F 29.76 in SW 4.0 mph 22.0 mph 98 % 0.00 in
09:10 53.1 °F 52.6 °F 29.75 in South 1.8 mph 22.0 mph 98 % 0.00 in
09:16 53.2 °F 52.7 °F 29.75 in SSW 0.3 mph 22.0 mph 98 % 0.00 in
09:21 53.3 °F 52.8 °F 29.75 in SSW 3.6 mph 22.0 mph 98 % 0.00 in
09:26 53.4 °F 52.8 °F 29.75 in SW 5.8 mph 22.0 mph 98 % 0.00 in
09:31 53.6 °F 53.0 °F 29.74 in SW 5.9 mph 22.0 mph 98 % 0.00 in
09:36 53.7 °F 53.1 °F 29.75 in SW 2.8 mph 22.0 mph 98 % 0.00 in
09:41 53.8 °F 53.2 °F 29.75 in SSW 5.7 mph 22.0 mph 98 % 0.00 in
09:46 53.9 °F 53.3 °F 29.74 in SSW 3.8 mph 22.0 mph 98 % 0.00 in
09:51 54.1 °F 53.5 °F 29.75 in SSW 6.1 mph 22.0 mph 98 % 0.00 in
09:56 54.2 °F 53.6 °F 29.75 in SSW 3.8 mph 22.0 mph 98 % 0.00 in
10:01 54.4 °F 53.8 °F 29.74 in SSW 3.4 mph 22.0 mph 98 % 0.00 in
10:06 54.6 °F 54.0 °F 29.74 in SW 3.4 mph 22.0 mph 98 % 0.00 in
10:11 54.7 °F 54.1 °F 29.74 in SW 4.6 mph 22.0 mph 98 % 0.00 in
10:16 54.9 °F 54.3 °F 29.75 in WSW 5.4 mph 22.0 mph 98 % 0.00 in
10:21 55.0 °F 54.4 °F 29.75 in SSW 7.2 mph 22.0 mph 98 % 0.00 in
10:27 55.1 °F 54.5 °F 29.75 in WSW 5.3 mph 22.0 mph 98 % 0.00 in
10:32 55.3 °F 54.7 °F 29.75 in WSW 5.3 mph 22.0 mph 98 % 0.00 in
10:37 55.4 °F 54.8 °F 29.75 in WSW 4.0 mph 22.0 mph 98 % 0.00 in
10:42 55.5 °F 54.9 °F 29.75 in SW 4.5 mph 22.0 mph 98 % 0.00 in
10:47 55.6 °F 54.8 °F 29.74 in SW 6.4 mph 22.0 mph 97 % 0.00 in
10:52 55.6 °F 54.8 °F 29.74 in WSW 4.3 mph 22.0 mph 97 % 0.00 in
10:57 55.7 °F 54.9 °F 29.74 in SW 4.4 mph 22.0 mph 97 % 0.00 in
11:02 55.7 °F 54.9 °F 29.73 in SSW 4.8 mph 22.0 mph 97 % 0.00 in
11:07 55.8 °F 55.0 °F 29.73 in WSW 2.8 mph 22.0 mph 97 % 0.00 in
11:12 55.9 °F 55.1 °F 29.75 in SW 6.1 mph 22.0 mph 97 % 0.00 in
11:17 55.9 °F 54.8 °F 29.75 in SW 5.4 mph 22.0 mph 96 % 0.00 in
11:22 55.9 °F 54.8 °F 29.75 in SSW 3.9 mph 22.0 mph 96 % 0.00 in
11:28 55.9 °F 54.8 °F 29.76 in SW 4.9 mph 22.0 mph 96 % 0.00 in
11:33 56.0 °F 54.9 °F 29.76 in SSW 3.8 mph 22.0 mph 96 % 0.00 in
11:38 56.0 °F 54.9 °F 29.76 in SW 2.7 mph 22.0 mph 96 % 0.00 in
11:43 56.1 °F 55.0 °F 29.76 in WSW 2.8 mph 22.0 mph 96 % 0.00 in
11:48 56.2 °F 55.1 °F 29.77 in SSW 4.2 mph 22.0 mph 96 % 0.00 in
11:53 56.3 °F 55.2 °F 29.77 in WSW 7.9 mph 22.0 mph 96 % 0.00 in
11:58 56.5 °F 55.4 °F 29.77 in SW 4.4 mph 22.0 mph 96 % 0.00 in
12:03 56.8 °F 55.7 °F 29.77 in WSW 4.5 mph 22.0 mph 96 % 0.00 in
12:08 56.9 °F 55.5 °F 29.78 in SSW 6.0 mph 22.0 mph 95 % 0.00 in
12:13 57.1 °F 55.7 °F 29.78 in SW 5.9 mph 22.0 mph 95 % 0.00 in
12:18 57.4 °F 56.0 °F 29.77 in West 6.7 mph 22.0 mph 95 % 0.00 in
12:23 57.7 °F 56.3 °F 29.78 in SSW 4.9 mph 22.0 mph 95 % 0.00 in
12:28 57.9 °F 56.5 °F 29.78 in WSW 6.5 mph 22.0 mph 95 % 0.00 in
12:33 58.0 °F 56.3 °F 29.79 in South 5.1 mph 22.0 mph 94 % 0.00 in
12:39 58.2 °F 56.5 °F 29.79 in SW 5.9 mph 22.0 mph 94 % 0.00 in
12:49 58.5 °F 56.5 °F 29.78 in SSW 5.0 mph 22.0 mph 93 % 0.00 in
12:54 58.5 °F 56.5 °F 29.78 in SW 4.7 mph 22.0 mph 93 % 0.00 in
12:59 58.6 °F 56.6 °F 29.78 in SSW 6.5 mph 22.0 mph 93 % 0.00 in
13:04 58.7 °F 56.7 °F 29.78 in SSW 4.0 mph 22.0 mph 93 % 0.00 in
13:09 58.9 °F 56.9 °F 29.77 in WSW 7.9 mph 22.0 mph 93 % 0.00 in
13:14 59.0 °F 56.7 °F 29.78 in SSW 5.4 mph 22.0 mph 92 % 0.00 in
13:19 59.1 °F 56.8 °F 29.78 in WSW 6.0 mph 22.0 mph 92 % 0.00 in
13:24 59.3 °F 56.7 °F 29.78 in SW 8.2 mph 22.0 mph 91 % 0.00 in
13:29 59.4 °F 57.1 °F 29.78 in South 8.7 mph 22.0 mph 92 % 0.00 in
13:34 59.5 °F 56.9 °F 29.78 in SW 6.2 mph 22.0 mph 91 % 0.00 in
13:39 59.5 °F 56.9 °F 29.78 in SW 7.0 mph 14.0 mph 91 % 0.00 in
13:44 59.6 °F 57.0 °F 29.78 in SW 6.0 mph 14.0 mph 91 % 0.00 in
13:49 59.6 °F 57.0 °F 29.78 in SW 5.0 mph 14.0 mph 91 % 0.00 in
13:54 59.7 °F 56.8 °F 29.78 in SW 7.2 mph 22.0 mph 90 % 0.00 in
13:59 59.9 °F 57.0 °F 29.79 in West 5.6 mph 22.0 mph 90 % 0.00 in
14:05 60.0 °F 56.4 °F 29.79 in WSW 7.4 mph 23.0 mph 88 % 0.00 in
14:10 60.2 °F 56.6 °F 29.80 in SW 8.3 mph 23.0 mph 88 % 0.00 in
14:20 60.4 °F 56.5 °F 29.82 in West 7.5 mph 23.0 mph 87 % 0.00 in
14:25 60.5 °F 56.6 °F 29.82 in SSW 4.7 mph 23.0 mph 87 % 0.00 in
14:30 60.5 °F 56.6 °F 29.82 in SW 5.1 mph 23.0 mph 87 % 0.00 in
14:35 60.5 °F 56.3 °F 29.80 in SSW 9.5 mph 23.0 mph 86 % 0.00 in
14:40 60.4 °F 56.2 °F 29.80 in WSW 7.2 mph 23.0 mph 86 % 0.00 in
14:45 60.4 °F 55.9 °F 29.82 in WSW 7.3 mph 23.0 mph 85 % 0.00 in
14:50 60.3 °F 55.4 °F 29.83 in SSW 11.2 mph 29.0 mph 84 % 0.00 in
14:55 59.7 °F 53.5 °F 29.88 in West 13.0 mph 29.0 mph 80 % 0.00 in
15:00 56.9 °F 46.8 °F 29.90 in WNW 14.0 mph 29.0 mph 69 % 0.00 in
15:05 53.9 °F 44.3 °F 29.93 in North 9.4 mph 29.0 mph 70 % 0.00 in
15:10 51.7 °F 43.3 °F 29.94 in WNW 4.7 mph 29.0 mph 73 % 0.00 in
15:15 50.1 °F 41.1 °F 29.93 in NW 10.3 mph 29.0 mph 71 % 0.00 in
15:20 48.8 °F 40.2 °F 29.96 in West 11.9 mph 29.0 mph 72 % 0.00 in
15:31 47.3 °F 39.4 °F 29.96 in NW 4.3 mph 29.0 mph 74 % 0.00 in
15:36 46.9 °F 39.4 °F 29.98 in WNW 9.2 mph 29.0 mph 75 % 0.00 in
15:41 46.6 °F 39.1 °F 29.99 in SW 6.8 mph 29.0 mph 75 % 0.00 in
15:46 46.3 °F 38.8 °F 29.98 in WNW 7.5 mph 29.0 mph 75 % 0.00 in
15:51 46.0 °F 38.5 °F 29.99 in West 6.3 mph 29.0 mph 75 % 0.00 in
15:56 45.8 °F 38.3 °F 29.99 in WNW 3.2 mph 29.0 mph 75 % 0.00 in
16:01 45.6 °F 38.1 °F 30.00 in NNW 5.4 mph 29.0 mph 75 % 0.00 in
16:06 45.4 °F 38.3 °F 30.02 in NW 6.0 mph 29.0 mph 76 % 0.00 in
16:11 45.2 °F 38.1 °F 30.02 in WNW 5.1 mph 29.0 mph 76 % 0.00 in
16:16 45.0 °F 37.9 °F 30.03 in WNW 5.6 mph 29.0 mph 76 % 0.00 in
16:21 44.8 °F 37.7 °F 30.05 in WNW 7.4 mph 29.0 mph 76 % 0.00 in
16:26 44.7 °F 37.3 °F 30.04 in SW 6.1 mph 29.0 mph 75 % 0.00 in
16:31 44.5 °F 37.4 °F 30.06 in NW 5.6 mph 29.0 mph 76 % 0.00 in
16:36 44.4 °F 37.3 °F 30.04 in WNW 7.9 mph 29.0 mph 76 % 0.00 in
16:41 44.2 °F 36.1 °F 30.06 in NW 6.6 mph 29.0 mph 73 % 0.00 in
16:46 43.9 °F 35.5 °F 30.07 in WNW 7.3 mph 29.0 mph 72 % 0.00 in
16:52 43.7 °F 35.3 °F 30.08 in North 4.9 mph 29.0 mph 72 % 0.00 in
16:57 43.5 °F 34.4 °F 30.08 in NW 7.0 mph 29.0 mph 70 % 0.00 in
17:02 43.3 °F 34.2 °F 30.11 in NW 7.0 mph 29.0 mph 70 % 0.00 in
17:07 43.2 °F 34.1 °F 30.10 in NNW 4.5 mph 29.0 mph 70 % 0.00 in
17:12 43.0 °F 32.4 °F 30.10 in NW 9.8 mph 29.0 mph 66 % 0.00 in
17:17 42.9 °F 32.3 °F 30.11 in NW 8.6 mph 29.0 mph 66 % 0.00 in
17:22 42.8 °F 32.2 °F 30.10 in NW 6.9 mph 29.0 mph 66 % 0.00 in
17:27 42.7 °F 31.7 °F 30.11 in NW 7.2 mph 29.0 mph 65 % 0.00 in
17:32 42.6 °F 31.7 °F 30.11 in NNW 9.2 mph 29.0 mph 65 % 0.00 in
17:37 42.5 °F 31.6 °F 30.14 in NNW 5.8 mph 29.0 mph 65 % 0.00 in
17:42 42.4 °F 31.5 °F 30.14 in NNW 10.9 mph 29.0 mph 65 % 0.00 in
17:47 42.3 °F 31.0 °F 30.12 in NNW 6.5 mph 29.0 mph 64 % 0.00 in
17:52 42.0 °F 29.5 °F 30.13 in NW 8.4 mph 29.0 mph 61 % 0.00 in
17:57 41.8 °F 29.3 °F 30.15 in NW 9.9 mph 29.0 mph 61 % 0.00 in
18:02 41.7 °F 29.6 °F 30.15 in North 7.0 mph 29.0 mph 62 % 0.00 in
18:12 41.5 °F 29.4 °F 30.15 in WNW 9.5 mph 29.0 mph 62 % 0.00 in
18:18 41.4 °F 29.3 °F 30.17 in NNW 9.7 mph 29.0 mph 62 % 0.00 in
18:23 41.3 °F 29.6 °F 30.17 in NW 8.8 mph 29.0 mph 63 % 0.00 in
18:28 41.2 °F 29.5 °F 30.17 in NW 5.2 mph 29.0 mph 63 % 0.00 in
18:33 41.1 °F 29.5 °F 30.16 in WNW 7.6 mph 29.0 mph 63 % 0.00 in
18:38 41.0 °F 29.0 °F 30.18 in NNW 6.1 mph 29.0 mph 62 % 0.00 in
18:43 40.9 °F 29.3 °F 30.18 in North 5.4 mph 29.0 mph 63 % 0.00 in
18:48 40.9 °F 29.3 °F 30.20 in NNW 5.4 mph 29.0 mph 63 % 0.00 in
18:53 40.8 °F 29.2 °F 30.20 in NW 5.7 mph 29.0 mph 63 % 0.00 in
18:58 40.7 °F 29.1 °F 30.21 in NW 6.0 mph 29.0 mph 63 % 0.00 in
19:03 40.7 °F 28.7 °F 30.22 in NW 4.9 mph 29.0 mph 62 % 0.00 in
19:08 40.6 °F 28.6 °F 30.23 in NNW 6.1 mph 29.0 mph 62 % 0.00 in
19:13 40.5 °F 28.9 °F 30.22 in WNW 5.1 mph 29.0 mph 63 % 0.00 in
19:18 40.4 °F 28.8 °F 30.21 in NNW 6.9 mph 29.0 mph 63 % 0.00 in
19:23 40.3 °F 28.3 °F 30.24 in WSW 6.4 mph 29.0 mph 62 % 0.00 in
19:28 40.3 °F 28.3 °F 30.25 in NW 4.9 mph 29.0 mph 62 % 0.00 in
19:33 40.2 °F 27.8 °F 30.24 in NW 5.1 mph 29.0 mph 61 % 0.00 in
19:38 40.2 °F 28.6 °F 30.26 in NW 5.8 mph 29.0 mph 63 % 0.00 in
19:44 40.2 °F 28.6 °F 30.26 in West 5.0 mph 29.0 mph 63 % 0.00 in
19:54 40.0 °F 28.0 °F 30.27 in North 5.0 mph 29.0 mph 62 % 0.00 in
19:59 39.9 °F 27.5 °F 30.27 in North 2.6 mph 29.0 mph 61 % 0.00 in
20:04 39.8 °F 27.8 °F 30.27 in NW 3.6 mph 29.0 mph 62 % 0.00 in
20:09 39.7 °F 27.3 °F 30.29 in WNW 3.4 mph 29.0 mph 61 % 0.00 in
20:14 39.7 °F 26.5 °F 30.29 in NW 5.2 mph 29.0 mph 59 % 0.00 in
20:19 39.6 °F 26.0 °F 30.29 in NNW 7.1 mph 29.0 mph 58 % 0.00 in
20:24 39.5 °F 26.8 °F 30.29 in NNW 3.9 mph 29.0 mph 60 % 0.00 in
20:29 39.4 °F 25.8 °F 30.27 in NNW 3.5 mph 29.0 mph 58 % 0.00 in
20:34 39.3 °F 26.2 °F 30.32 in NNW 3.7 mph 29.0 mph 59 % 0.00 in
20:39 39.1 °F 25.6 °F 30.31 in NW 4.4 mph 29.0 mph 58 % 0.00 in
20:44 39.0 °F 25.5 °F 30.30 in NNW 4.1 mph 29.0 mph 58 % 0.00 in
20:49 38.9 °F 25.4 °F 30.30 in NW 6.0 mph 13.0 mph 58 % 0.00 in
20:54 38.8 °F 24.4 °F 30.31 in NW 7.0 mph 13.0 mph 56 % 0.00 in
20:59 38.6 °F 24.2 °F 30.31 in North 5.4 mph 29.0 mph 56 % 0.00 in
21:04 38.5 °F 24.1 °F 30.31 in NNW 5.0 mph 13.0 mph 56 % 0.00 in
21:09 38.3 °F 24.0 °F 30.31 in WNW 7.1 mph 29.0 mph 56 % 0.00 in
21:14 38.2 °F 24.7 °F 30.31 in NW 5.0 mph 12.0 mph 58 % 0.00 in
21:19 38.0 °F 23.7 °F 30.32 in NNW 5.0 mph 12.0 mph 56 % 0.00 in
21:24 37.9 °F 24.4 °F 30.32 in NNW 6.0 mph 10.0 mph 58 % 0.00 in
21:29 37.7 °F 23.4 °F 30.32 in NW 6.0 mph 10.0 mph 56 % 0.00 in
21:34 37.5 °F 23.2 °F 30.33 in NW 5.0 mph 12.0 mph 56 % 0.00 in
21:39 37.4 °F 23.5 °F 30.33 in NW 6.0 mph 12.0 mph 57 % 0.00 in
21:44 37.2 °F 23.3 °F 30.33 in NNW 6.0 mph 12.0 mph 57 % 0.00 in
21:49 37.0 °F 24.0 °F 30.34 in NW 3.0 mph 10.0 mph 59 % 0.00 in
21:54 36.8 °F 23.8 °F 30.35 in NW 6.1 mph 29.0 mph 59 % 0.00 in
21:59 36.7 °F 23.7 °F 30.35 in NW 7.5 mph 29.0 mph 59 % 0.00 in
22:04 36.6 °F 23.6 °F 30.36 in NW 3.0 mph 13.0 mph 59 % 0.00 in
22:09 36.4 °F 22.6 °F 30.36 in NW 7.0 mph 17.0 mph 57 % 0.00 in
22:14 36.3 °F 22.5 °F 30.36 in NW 5.0 mph 13.0 mph 57 % 0.00 in
22:19 36.2 °F 22.8 °F 30.37 in WNW 4.6 mph 29.0 mph 58 % 0.00 in
22:24 36.1 °F 22.7 °F 30.37 in NW 7.0 mph 13.0 mph 58 % 0.00 in
22:29 36.0 °F 22.6 °F 30.37 in NW 6.0 mph 13.0 mph 58 % 0.00 in
22:34 35.8 °F 22.9 °F 30.37 in NNW 6.0 mph 12.0 mph 59 % 0.00 in
22:39 35.7 °F 22.8 °F 30.38 in NNW 2.0 mph 15.0 mph 59 % 0.00 in
22:44 35.6 °F 22.3 °F 30.38 in NNW 5.0 mph 15.0 mph 58 % 0.00 in
22:49 35.5 °F 22.2 °F 30.39 in North 6.0 mph 10.0 mph 58 % 0.00 in
22:54 35.5 °F 22.2 °F 30.39 in NNW 6.0 mph 12.0 mph 58 % 0.00 in
23:00 35.4 °F 22.5 °F 30.39 in North 5.0 mph 29.0 mph 59 % 0.00 in
23:05 35.3 °F 22.4 °F 30.39 in NNW 3.3 mph 29.0 mph 59 % 0.00 in
23:10 35.2 °F 22.7 °F 30.39 in NW 3.2 mph 29.0 mph 60 % 0.00 in
23:15 35.2 °F 21.9 °F 30.39 in North 4.0 mph 29.0 mph 58 % 0.00 in
23:20 35.0 °F 21.7 °F 30.40 in NNW 5.2 mph 29.0 mph 58 % 0.00 in
23:25 34.9 °F 21.6 °F 30.41 in NW 7.2 mph 29.0 mph 58 % 0.00 in
23:30 34.7 °F 21.0 °F 30.40 in NW 8.9 mph 29.0 mph 57 % 0.00 in
23:35 34.6 °F 21.3 °F 30.42 in NW 6.9 mph 29.0 mph 58 % 0.00 in
23:40 34.5 °F 20.4 °F 30.42 in WNW 4.6 mph 29.0 mph 56 % 0.00 in
23:45 34.3 °F 20.6 °F 30.42 in WNW 3.2 mph 29.0 mph 57 % 0.00 in
23:50 34.2 °F 20.5 °F 30.42 in NW 5.0 mph 29.0 mph 57 % 0.00 in
23:55 34.0 °F 20.8 °F 30.42 in NNW 5.3 mph 29.0 mph 58 % 0.00 in
Crab Meadow Weather
Compliments of Weather Underground - 3 mb

Script developed by  Jim McMurry - jmcmurry@mwt.net Adapted for the template by  Wim van der Kuil - Leuven-Template.eu

Weather Terms: Rain/Showers - Rain is a nearly steady and uniform fall of precipitation over an area. Showers are intermittent and/or scattered convective rainfall of varying intensity.